Time;durP1;ratioP1;P1;durP2;ratioP2;P2;SDS_P1;SDS_P2;PMS_P1;PMS_P2;Temp;Humidity;BMP_temperature;BMP_pressure;BME280_temperature;BME280_humidity;BME280_pressure;Samples;Min_cycle;Max_cycle;Signal;HPM_P1;HPM_P2
2023/01/11 00:00:11;;;;;;;40.93;5.93;;;10.30;99.90;;;;;;5070999;28;20681;-60
2023/01/11 00:02:36;;;;;;;42.07;5.47;;;10.10;99.90;;;;;;5071145;28;20176;-60
2023/01/11 00:05:03;;;;;;;43.87;5.43;;;10.20;99.90;;;;;;5071095;28;20217;-59
2023/01/11 00:07:29;;;;;;;41.10;5.90;;;10.20;99.90;;;;;;5053883;28;20621;-59
2023/01/11 00:09:54;;;;;;;34.90;3.60;;;10.20;99.90;;;;;;5065790;28;20677;-59
2023/01/11 00:12:20;;;;;;;40.80;4.60;;;10.30;99.90;;;;;;5050959;28;20652;-60
2023/01/11 00:14:45;;;;;;;43.50;6.07;;;10.30;99.90;;;;;;5060438;28;20180;-59
2023/01/11 00:17:11;;;;;;;40.93;5.27;;;;;;;;;;5062385;28;20202;-60
2023/01/11 00:19:37;;;;;;;36.33;4.53;;;10.30;99.90;;;;;;5066078;28;20220;-59
2023/01/11 00:22:03;;;;;;;63.17;6.80;;;10.30;99.90;;;;;;5049753;28;20177;-60
2023/01/11 00:24:28;;;;;;;38.90;5.10;;;10.40;99.90;;;;;;5052362;28;20172;-60
2023/01/11 00:26:54;;;;;;;42.87;5.47;;;10.30;99.90;;;;;;5070641;28;20176;-58
2023/01/11 00:29:20;;;;;;;46.23;5.00;;;10.40;99.90;;;;;;5068338;28;20208;-59
2023/01/11 00:31:45;;;;;;;43.57;5.40;;;10.30;99.90;;;;;;5052967;28;20196;-59
2023/01/11 00:34:11;;;;;;;37.03;4.90;;;10.30;99.90;;;;;;5053795;28;20216;-60
2023/01/11 00:36:36;;;;;;;40.27;6.03;;;10.30;99.90;;;;;;5068176;28;20220;-60
2023/01/11 00:39:02;;;;;;;42.40;4.87;;;10.20;99.90;;;;;;5056981;28;20307;-59
2023/01/11 00:49:41;;;;;;;47.77;5.07;;;10.10;99.90;;;;;;5054750;28;20211;-59
2023/01/11 00:52:08;;;;;;;48.53;5.33;;;10.20;99.90;;;;;;5058401;28;20265;-59
2023/01/11 00:54:38;;;;;;;44.83;5.70;;;10.20;99.90;;;;;;5068537;28;20211;-60
2023/01/11 00:57:06;;;;;;;44.43;5.53;;;10.20;99.90;;;;;;5074190;28;20185;-59
2023/01/11 00:59:32;;;;;;;37.57;4.27;;;10.20;99.90;;;;;;5072135;28;20207;-59
2023/01/11 01:01:58;;;;;;;30.33;4.57;;;10.40;99.90;;;;;;5072307;28;20183;-59
2023/01/11 01:04:23;;;;;;;43.50;5.20;;;10.20;99.90;;;;;;5073874;28;20168;-59
2023/01/11 01:06:49;;;;;;;44.90;5.57;;;10.20;99.90;;;;;;5060819;28;20183;-59
2023/01/11 01:09:14;;;;;;;24.83;3.73;;;10.20;99.90;;;;;;5073628;28;20681;-59
2023/01/11 01:11:40;;;;;;;38.00;4.90;;;10.30;99.90;;;;;;5073798;28;20183;-60
2023/01/11 01:16:51;;;;;;;52.73;6.27;;;10.10;99.90;;;;;;5063379;28;20255;-60
2023/01/11 01:19:17;;;;;;;36.37;4.77;;;10.00;99.90;;;;;;5054007;28;20227;-60
2023/01/11 01:21:42;;;;;;;32.47;4.90;;;10.00;99.90;;;;;;5056910;28;20189;-60
2023/01/11 01:24:08;;;;;;;40.93;5.10;;;10.00;99.90;;;;;;5064244;28;20664;-60
2023/01/11 01:26:34;;;;;;;41.00;4.90;;;9.90;99.90;;;;;;5058803;28;20557;-60
2023/01/11 01:28:59;;;;;;;41.93;5.63;;;9.80;99.90;;;;;;5062513;28;20176;-60
2023/01/11 01:31:25;;;;;;;39.27;4.67;;;9.80;99.90;;;;;;5068655;28;20718;-60
2023/01/11 01:33:50;;;;;;;50.00;5.40;;;9.80;99.90;;;;;;5060793;28;20183;-60
2023/01/11 01:36:16;;;;;;;42.67;5.30;;;9.70;99.90;;;;;;5073680;28;20220;-59
2023/01/11 01:38:42;;;;;;;52.67;6.47;;;9.70;99.90;;;;;;5073327;28;20292;-60
2023/01/11 01:41:11;;;;;;;36.00;4.60;;;9.70;99.90;;;;;;5073474;28;20200;-60
2023/01/11 01:43:57;;;;;;;39.07;4.43;;;9.80;99.90;;;;;;5070730;28;20169;-60
2023/01/11 01:46:27;;;;;;;51.07;5.40;;;9.90;99.90;;;;;;5070686;28;20192;-60
2023/01/11 01:48:58;;;;;;;43.73;5.37;;;9.80;99.90;;;;;;5072666;28;20196;-60
2023/01/11 01:51:29;;;;;;;44.03;5.23;;;9.80;99.90;;;;;;5072835;28;20184;-60
2023/01/11 01:54:01;;;;;;;38.23;5.30;;;9.80;99.90;;;;;;5073003;28;20169;-60
2023/01/11 01:56:42;;;;;;;40.03;5.70;;;9.80;99.90;;;;;;5060049;28;20192;-60
2023/01/11 01:59:12;;;;;;;37.10;4.80;;;9.80;99.90;;;;;;5052981;28;20250;-60
2023/01/11 02:01:46;;;;;;;56.83;5.87;;;9.80;99.90;;;;;;5056198;28;20168;-60
2023/01/11 02:04:37;;;;;;;54.50;6.37;;;9.80;99.90;;;;;;5071581;28;20192;-60
2023/01/11 02:07:10;;;;;;;66.17;6.73;;;9.90;99.90;;;;;;5059155;28;20183;-60
2023/01/11 02:09:43;;;;;;;45.03;4.80;;;9.70;99.90;;;;;;5057917;28;20538;-59
2023/01/11 02:12:10;;;;;;;44.63;6.17;;;9.70;99.90;;;;;;5070718;28;20556;-60
2023/01/11 02:14:39;;;;;;;50.13;5.80;;;9.70;99.90;;;;;;5064980;28;20188;-60
2023/01/11 02:17:05;;;;;;;44.77;5.33;;;9.70;99.90;;;;;;5065874;28;20184;-60
2023/01/11 02:20:12;;;;;;;52.87;5.43;;;9.70;99.90;;;;;;5068946;28;20223;-59
2023/01/11 02:22:46;;;;;;;47.07;6.67;;;9.70;99.90;;;;;;5027244;28;20193;-60
2023/01/11 02:25:47;;;;;;;41.53;5.60;;;9.60;99.90;;;;;;5071359;28;20229;-60
2023/01/11 02:28:21;;;;;;;50.10;5.50;;;9.70;99.90;;;;;;5010105;28;20183;-60
2023/01/11 02:30:59;;;;;;;50.43;5.83;;;9.50;99.90;;;;;;5057913;28;20184;-60
2023/01/11 02:33:41;;;;;;;49.83;4.93;;;9.80;99.90;;;;;;5056384;28;20259;-57
2023/01/11 02:36:12;;;;;;;49.03;4.83;;;9.70;99.90;;;;;;5070332;28;20196;-60
2023/01/11 02:39:00;;;;;;;45.93;4.80;;;9.60;99.90;;;;;;5072069;28;20268;-60
2023/01/11 02:45:00;;;;;;;52.53;5.83;;;9.60;99.90;;;;;;5058998;28;20185;-60
2023/01/11 02:47:28;;;;;;;47.93;5.67;;;9.50;99.90;;;;;;5053684;28;20187;-59
2023/01/11 02:50:13;;;;;;;39.33;4.97;;;9.50;99.90;;;;;;5067146;28;20647;-59
2023/01/11 02:52:57;;;;;;;32.97;4.77;;;9.40;99.90;;;;;;5050490;28;20184;-59
2023/01/11 02:55:30;;;;;;;44.60;5.83;;;9.40;99.90;;;;;;5060816;28;20189;-59
2023/01/11 02:58:01;;;;;;;50.80;5.73;;;9.50;99.90;;;;;;5051873;28;20290;-59
2023/01/11 03:00:27;;;;;;;41.00;5.13;;;9.40;99.90;;;;;;5053829;28;20205;-59
2023/01/11 03:03:13;;;;;;;43.83;6.03;;;9.40;99.90;;;;;;5065222;28;20173;-59
2023/01/11 03:05:45;;;;;;;48.40;4.57;;;9.40;99.90;;;;;;5064050;28;20168;-59
2023/01/11 03:08:25;;;;;;;39.93;4.30;;;9.50;99.90;;;;;;5058562;28;20302;-59
2023/01/11 03:12:50;;;;;;;36.00;3.93;;;9.60;99.90;;;;;;5071539;28;20661;-59
2023/01/11 03:14:16;;;;;;;37.47;4.40;;;9.60;99.90;;;;;;5060007;28;20668;-59
2023/01/11 03:16:41;;;;;;;42.23;5.77;;;9.30;99.90;;;;;;5067219;28;20191;-59
2023/01/11 03:19:30;;;;;;;38.43;5.47;;;9.60;99.90;;;;;;5053198;28;20203;-60
2023/01/11 03:22:22;;;;;;;36.07;4.40;;;9.60;99.90;;;;;;5059249;28;20223;-59
2023/01/11 03:24:56;;;;;;;36.93;4.63;;;9.60;99.90;;;;;;5059464;28;20256;-59
2023/01/11 03:27:28;;;;;;;46.20;4.80;;;9.80;99.90;;;;;;5064222;28;20643;-59
2023/01/11 03:30:05;;;;;;;38.73;4.30;;;9.70;99.90;;;;;;5063261;28;20671;-59
2023/01/11 03:32:55;;;;;;;35.37;4.43;;;9.60;99.90;;;;;;5055123;28;20264;-59
2023/01/11 03:35:36;;;;;;;29.17;3.60;;;9.60;99.90;;;;;;5051522;28;20715;-59
2023/01/11 03:38:11;;;;;;;33.80;4.47;;;9.60;99.90;;;;;;5059990;28;20766;-59
2023/01/11 03:40:41;;;;;;;43.93;4.60;;;9.60;99.90;;;;;;5071131;28;20200;-58
2023/01/11 03:43:10;;;;;;;29.60;4.30;;;9.60;99.90;;;;;;5071390;28;20173;-58
2023/01/11 03:45:57;;;;;;;35.93;4.33;;;9.50;99.90;;;;;;5071237;28;20181;-58
2023/01/11 03:48:28;;;;;;;27.97;4.07;;;9.50;99.90;;;;;;5069117;28;20168;-58
2023/01/11 03:50:55;;;;;;;27.73;3.80;;;9.50;99.90;;;;;;5065283;28;20205;-59
2023/01/11 03:53:24;;;;;;;30.00;3.50;;;9.50;99.90;;;;;;5071304;28;20204;-59
2023/01/11 03:55:55;;;;;;;27.60;3.40;;;9.10;99.90;;;;;;5071061;28;20176;-59
2023/01/11 03:58:21;;;;;;;16.33;3.17;;;;;;;;;;5071093;28;20231;-59
2023/01/11 04:00:48;;;;;;;22.40;2.57;;;9.60;99.90;;;;;;5070959;28;20254;-59
2023/01/11 04:03:13;;;;;;;12.73;1.87;;;9.50;99.90;;;;;;5071035;28;20165;-59
2023/01/11 04:05:42;;;;;;;9.97;1.03;;;8.80;99.90;;;;;;5069786;28;20173;-59
2023/01/11 04:08:09;;;;;;;2.93;0.77;;;8.60;99.90;;;;;;5067209;28;20184;-58
2023/01/11 04:10:35;;;;;;;9.37;1.27;;;8.20;99.90;;;;;;5051222;28;20272;-58
2023/01/11 04:13:01;;;;;;;6.03;1.00;;;8.50;99.90;;;;;;5051007;28;20252;-59
2023/01/11 04:15:29;;;;;;;4.50;0.90;;;;;;;;;;4922389;22;23056;-59
2023/01/11 04:17:55;;;;;;;10.47;1.00;;;8.40;99.90;;;;;;5029909;22;20231;-61
2023/01/11 04:20:20;;;;;;;9.93;1.13;;;8.70;99.90;;;;;;5067077;28;20212;-61
2023/01/11 04:22:46;;;;;;;6.53;1.10;;;8.30;99.90;;;;;;5072862;28;20248;-61
2023/01/11 04:25:12;;;;;;;6.60;1.10;;;8.10;99.90;;;;;;5073379;28;20259;-61
2023/01/11 04:27:38;;;;;;;10.93;1.10;;;8.10;99.90;;;;;;5056171;28;20259;-61
2023/01/11 04:30:05;;;;;;;5.77;1.17;;;8.10;99.90;;;;;;5074072;28;20172;-61
2023/01/11 04:32:30;;;;;;;9.40;1.43;;;8.20;99.90;;;;;;5074023;28;20731;-61
2023/01/11 04:34:56;;;;;;;11.03;1.43;;;;;;;;;;5073857;28;20172;-61
2023/01/11 04:37:22;;;;;;;8.53;1.37;;;;;;;;;;5055985;28;20180;-60
2023/01/11 04:39:48;;;;;;;6.30;1.43;;;8.10;99.90;;;;;;5073913;28;20299;-60
2023/01/11 04:42:19;;;;;;;2.87;0.70;;;8.00;99.90;;;;;;5073824;28;20289;-60
2023/01/11 04:44:47;;;;;;;7.13;0.70;;;8.20;99.90;;;;;;5073705;28;20177;-60
2023/01/11 04:47:14;;;;;;;5.00;1.20;;;8.00;99.90;;;;;;5073841;28;20217;-60
2023/01/11 04:49:40;;;;;;;4.03;0.63;;;7.50;99.90;;;;;;5073829;28;20176;-60
2023/01/11 04:52:05;;;;;;;7.97;0.80;;;7.90;99.90;;;;;;5071770;28;20172;-60
2023/01/11 04:54:31;;;;;;;8.90;1.50;;;7.70;99.90;;;;;;5072584;28;20169;-60
2023/01/11 04:56:57;;;;;;;6.37;0.80;;;;;;;;;;5073039;28;20195;-60
2023/01/11 04:59:23;;;;;;;4.50;0.73;;;7.80;99.90;;;;;;5072548;28;20226;-59
2023/01/11 05:01:49;;;;;;;11.03;1.30;;;;;;;;;;5072085;28;20267;-59
2023/01/11 05:04:14;;;;;;;7.03;0.83;;;8.00;99.90;;;;;;5073608;28;20509;-59
2023/01/11 05:06:40;;;;;;;6.90;1.03;;;7.80;99.90;;;;;;5073240;28;20200;-60
2023/01/11 05:09:10;;;;;;;7.83;1.23;;;7.90;99.90;;;;;;5073426;28;20188;-60
2023/01/11 05:11:36;;;;;;;6.30;1.63;;;;;;;;;;5055479;28;20246;-60
2023/01/11 05:14:02;;;;;;;14.97;1.50;;;8.40;99.90;;;;;;5072871;28;20180;-58
2023/01/11 05:16:28;;;;;;;7.20;2.00;;;7.90;99.90;;;;;;5072911;28;20216;-59
2023/01/11 05:18:55;;;;;;;12.20;1.53;;;7.80;99.90;;;;;;5073291;28;20224;-60
2023/01/11 05:21:32;;;;;;;13.37;1.67;;;8.20;99.90;;;;;;5072977;28;20196;-60
2023/01/11 05:23:59;;;;;;;10.83;1.63;;;7.60;99.90;;;;;;5073203;28;20179;-60
2023/01/11 05:26:28;;;;;;;11.27;1.57;;;7.70;99.90;;;;;;5072938;28;20202;-59
2023/01/11 05:28:55;;;;;;;15.20;1.77;;;7.50;99.90;;;;;;5073039;28;20177;-60
2023/01/11 05:31:22;;;;;;;13.57;1.70;;;7.50;99.90;;;;;;5072867;28;20172;-60
2023/01/11 05:33:47;;;;;;;12.40;1.43;;;7.70;99.90;;;;;;5072786;28;20630;-59
2023/01/11 05:36:21;;;;;;;25.60;1.97;;;7.60;99.90;;;;;;5073176;28;20169;-59
2023/01/11 05:38:49;;;;;;;18.60;2.23;;;7.60;99.90;;;;;;5072922;28;20236;-59
2023/01/11 05:41:15;;;;;;;3.73;1.13;;;7.80;99.90;;;;;;5073023;28;20259;-60
2023/01/11 05:46:28;;;;;;;12.33;1.20;;;7.60;99.90;;;;;;5073235;28;20207;-60
2023/01/11 05:48:54;;;;;;;9.10;1.20;;;7.90;99.90;;;;;;5072921;28;20184;-60
2023/01/11 05:51:21;;;;;;;22.17;2.07;;;7.90;99.90;;;;;;5072707;28;20172;-61
2023/01/11 05:53:47;;;;;;;13.10;1.50;;;;;;;;;;5070423;28;20164;-60
2023/01/11 05:56:13;;;;;;;20.00;1.67;;;7.30;99.90;;;;;;5068867;28;20196;-60
2023/01/11 05:58:38;;;;;;;9.13;1.30;;;8.10;99.90;;;;;;5072638;28;20210;-60
2023/01/11 06:01:05;;;;;;;14.43;1.57;;;7.90;99.90;;;;;;5072677;28;20169;-60
2023/01/11 06:03:31;;;;;;;12.97;1.63;;;8.10;99.90;;;;;;5054562;28;20173;-59
2023/01/11 06:05:58;;;;;;;7.17;1.00;;;7.90;99.90;;;;;;5072368;28;20184;-60
2023/01/11 06:08:24;;;;;;;11.37;1.03;;;7.60;99.90;;;;;;5072068;28;20173;-60
2023/01/11 06:10:54;;;;;;;8.43;1.50;;;7.90;99.90;;;;;;5072260;28;20171;-60
2023/01/11 06:13:27;;;;;;;17.43;1.70;;;7.40;99.90;;;;;;5072166;28;20238;-60
2023/01/11 06:16:01;;;;;;;16.63;1.70;;;7.90;99.90;;;;;;5072154;28;20183;-60
2023/01/11 06:18:33;;;;;;;22.33;2.40;;;7.70;99.90;;;;;;5072120;28;20220;-60
2023/01/11 06:21:00;;;;;;;15.87;2.27;;;;;;;;;;5069663;28;20212;-60
2023/01/11 06:23:27;;;;;;;17.47;2.13;;;7.90;99.90;;;;;;5071089;28;20173;-60
2023/01/11 06:25:53;;;;;;;17.70;1.90;;;7.80;99.90;;;;;;5071956;28;20173;-60
2023/01/11 06:28:19;;;;;;;21.40;2.10;;;7.90;99.90;;;;;;5071970;28;20558;-60
2023/01/11 06:30:52;;;;;;;19.70;2.27;;;7.90;99.90;;;;;;5053667;28;20771;-60
2023/01/11 06:33:18;;;;;;;12.53;1.77;;;;;;;;;;5071651;28;20191;-60
2023/01/11 06:35:44;;;;;;;18.63;2.33;;;7.80;99.90;;;;;;5071482;28;20187;-61
2023/01/11 06:38:12;;;;;;;17.40;2.10;;;7.80;99.90;;;;;;5071600;28;20176;-60
2023/01/11 06:40:39;;;;;;;25.63;2.40;;;7.70;99.90;;;;;;5071369;28;20220;-61
2023/01/11 06:43:06;;;;;;;13.43;1.87;;;7.70;99.90;;;;;;5071153;28;20176;-61
2023/01/11 06:45:32;;;;;;;15.13;2.43;;;;;;;;;;5053530;28;20271;-61
2023/01/11 06:47:58;;;;;;;20.37;2.40;;;7.60;99.90;;;;;;5071650;28;20176;-61
2023/01/11 06:50:24;;;;;;;24.43;2.80;;;;;;;;;;5071749;28;20494;-61
2023/01/11 06:52:57;;;;;;;17.30;2.30;;;7.80;99.90;;;;;;5071449;28;20181;-61
2023/01/11 06:55:24;;;;;;;24.57;2.50;;;9.60;99.90;;;;;;5071342;28;20208;-61
2023/01/11 06:57:50;;;;;;;20.13;2.17;;;7.60;99.90;;;;;;5064613;28;20180;-61
2023/01/11 07:00:17;;;;;;;17.43;2.00;;;7.60;99.90;;;;;;5070352;28;20204;-60
2023/01/11 07:02:43;;;;;;;23.53;1.93;;;7.20;99.90;;;;;;5069884;28;20187;-61
2023/01/11 07:05:09;;;;;;;21.67;2.43;;;;;;;;;;5066096;28;20238;-61
2023/01/11 07:07:35;;;;;;;16.17;2.23;;;;;;;;;;5062238;28;20196;-61
2023/01/11 07:10:01;;;;;;;22.73;2.30;;;;;;;;;;5070955;28;20177;-61
2023/01/11 07:12:27;;;;;;;27.17;2.70;;;7.80;99.90;;;;;;5070966;28;20177;-61
2023/01/11 07:14:53;;;;;;;13.80;1.43;;;;;;;;;;5069327;28;20184;-61
2023/01/11 07:17:19;;;;;;;15.60;2.00;;;;;;;;;;5070847;28;20239;-61
2023/01/11 07:19:45;;;;;;;19.47;2.70;;;;;;;;;;5070594;28;20211;-61
2023/01/11 07:22:11;;;;;;;18.40;2.37;;;;;;;;;;5070585;28;20164;-61
2023/01/11 07:24:37;;;;;;;18.77;2.67;;;;;;;;;;5069579;28;20181;-61
2023/01/11 07:27:03;;;;;;;22.83;2.23;;;;;;;;;;5070697;28;20208;-61
2023/01/11 07:29:29;;;;;;;14.33;1.80;;;7.50;99.90;;;;;;5070487;28;20180;-58
2023/01/11 07:31:55;;;;;;;23.37;3.13;;;;;;;;;;5070290;28;20172;-62
2023/01/11 07:34:21;;;;;;;29.30;2.73;;;8.30;99.90;;;;;;5070820;28;20173;-62
2023/01/11 07:36:47;;;;;;;18.60;2.03;;;;;;;;;;5070866;28;20520;-61
2023/01/11 07:39:13;;;;;;;24.57;2.80;;;;;;;;;;5070399;28;20189;-62
2023/01/11 07:44:31;;;;;;;18.20;2.33;;;;;;;;;;5029276;28;20188;-62
2023/01/11 07:46:57;;;;;;;12.07;1.93;;;;;;;;;;5070620;28;20252;-62
2023/01/11 07:49:23;;;;;;;20.17;2.70;;;;;;;;;;5070815;28;20177;-62
2023/01/11 07:51:50;;;;;;;17.10;2.53;;;;;;;;;;5061843;28;20663;-61
2023/01/11 07:54:17;;;;;;;19.53;2.63;;;;;;;;;;5068640;28;20192;-58
2023/01/11 07:56:43;;;;;;;23.87;2.60;;;;;;;;;;5065697;28;20181;-58
2023/01/11 07:59:09;;;;;;;18.70;3.33;;;;;;;;;;5060259;28;20664;-58
2023/01/11 08:01:35;;;;;;;17.90;2.33;;;;;;;;;;5050452;28;20174;-58
2023/01/11 08:04:02;;;;;;;16.50;2.57;;;;;;;;;;5050500;28;20239;-58
2023/01/11 08:06:28;;;;;;;30.37;3.47;;;;;;;;;;5050336;28;20212;-58
2023/01/11 08:08:54;;;;;;;14.40;2.23;;;;;;;;;;5068903;28;20200;-57
2023/01/11 08:16:49;;;;;;;19.50;2.90;;;;;;;;;;5070244;28;20226;-56
2023/01/11 08:19:15;;;;;;;23.23;2.23;;;;;;;;;;5069882;28;20291;-61
2023/01/11 08:21:43;;;;;;;22.97;2.73;;;;;;;;;;5070269;28;20596;-58
2023/01/11 08:24:09;;;;;;;22.60;2.97;;;;;;;;;;5070438;28;20489;-58
2023/01/11 08:26:35;;;;;;;20.50;2.47;;;;;;;;;;5070213;28;20172;-58
2023/01/11 08:29:01;;;;;;;15.33;1.77;;;;;;;;;;5069363;28;20180;-59
2023/01/11 08:31:27;;;;;;;12.90;1.80;;;;;;;;;;5070131;28;20275;-59
2023/01/11 08:33:53;;;;;;;19.00;2.07;;;;;;;;;;5069957;28;20177;-59
2023/01/11 08:36:19;;;;;;;23.60;3.00;;;;;;;;;;5068414;28;20173;-58
2023/01/11 08:38:45;;;;;;;23.30;2.67;;;;;;;;;;5069909;28;20173;-59
2023/01/11 08:41:13;;;;;;;18.80;2.50;;;;;;;;;;5070101;28;20580;-60
2023/01/11 08:43:40;;;;;;;20.43;2.67;;;;;;;;;;5069765;28;20183;-59
2023/01/11 08:46:07;;;;;;;12.37;2.40;;;;;;;;;;5069973;28;20262;-59
2023/01/11 08:48:33;;;;;;;19.23;2.57;;;;;;;;;;5061875;28;20246;-60
2023/01/11 08:50:59;;;;;;;22.80;2.47;;;;;;;;;;5069987;28;20176;-60
2023/01/11 08:53:25;;;;;;;13.33;1.60;;;;;;;;;;5070053;28;20638;-59
2023/01/11 08:55:51;;;;;;;16.37;2.40;;;;;;;;;;5070078;28;20255;-60
2023/01/11 08:58:17;;;;;;;11.00;0.93;;;;;;;;;;5069775;28;20172;-61
2023/01/11 09:00:43;;;;;;;28.33;2.43;;;;;;;;;;5070090;28;20234;-60
2023/01/11 09:03:10;;;;;;;11.93;1.93;;;;;;;;;;5069570;28;20269;-59
2023/01/11 09:05:39;;;;;;;4.17;0.97;;;9.50;99.90;;;;;;5072453;28;20242;-60
2023/01/11 09:08:05;;;;;;;9.67;1.33;;;;;;;;;;5073576;28;20172;-60
2023/01/11 09:10:32;;;;;;;16.17;3.97;;;;;;;;;;5073457;28;20177;-59
2023/01/11 09:12:58;;;;;;;19.77;2.90;;;;;;;;;;5073488;28;20191;-60
2023/01/11 09:15:24;;;;;;;13.53;1.80;;;;;;;;;;5073418;28;20227;-59
2023/01/11 09:17:51;;;;;;;20.90;2.47;;;;;;;;;;5072763;28;20217;-60
2023/01/11 09:20:18;;;;;;;9.63;1.77;;;;;;;;;;5073247;28;20257;-59
2023/01/11 09:22:47;;;;;;;19.03;2.10;;;9.40;99.90;;;;;;5072966;28;20258;-59
2023/01/11 09:25:13;;;;;;;17.97;1.67;;;9.60;99.90;;;;;;5073112;28;20188;-59
2023/01/11 09:27:46;;;;;;;14.73;2.03;;;9.70;99.90;;;;;;5073089;28;20184;-60
2023/01/11 09:30:14;;;;;;;10.93;1.83;;;9.90;99.90;;;;;;5072095;28;21667;-62
2023/01/11 09:32:40;;;;;;;15.93;2.27;;;10.10;99.90;;;;;;5072373;28;20649;-62
2023/01/11 09:35:07;;;;;;;24.60;2.17;;;10.20;99.90;;;;;;5072997;28;20177;-62
2023/01/11 09:37:35;;;;;;;7.70;1.37;;;10.40;99.90;;;;;;5072769;28;20177;-62
2023/01/11 09:40:00;;;;;;;23.10;2.10;;;10.70;99.90;;;;;;5072801;28;20216;-62
2023/01/11 09:42:34;;;;;;;7.23;1.67;;;10.40;99.90;;;;;;5071899;28;20172;-61
2023/01/11 09:45:12;;;;;;;14.70;2.37;;;10.00;99.90;;;;;;5066484;28;20192;-61
2023/01/11 09:47:44;;;;;;;15.37;1.63;;;9.80;99.90;;;;;;5072290;28;20206;-61
2023/01/11 09:50:18;;;;;;;14.20;2.23;;;9.80;99.90;;;;;;5060565;28;20189;-60
2023/01/11 09:52:52;;;;;;;6.50;1.10;;;9.80;99.90;;;;;;5052812;28;20191;-61
2023/01/11 09:55:24;;;;;;;12.23;2.43;;;10.30;99.90;;;;;;5052558;28;20184;-62
2023/01/11 09:58:01;;;;;;;7.50;1.57;;;10.30;99.90;;;;;;5067505;28;20169;-61
2023/01/11 10:00:27;;;;;;;7.07;1.50;;;;;;;;;;5072282;28;20681;-61
2023/01/11 10:03:05;;;;;;;11.33;2.40;;;10.40;99.90;;;;;;5072696;28;20161;-61
2023/01/11 10:05:39;;;;;;;5.63;1.07;;;10.40;99.90;;;;;;5072402;28;20184;-56
2023/01/11 10:08:26;;;;;;;10.57;2.43;;;10.20;99.90;;;;;;5072380;28;20172;-57
2023/01/11 10:11:04;;;;;;;11.07;1.67;;;10.10;99.90;;;;;;5072350;28;20172;-56
2023/01/11 10:13:56;;;;;;;10.63;1.70;;;10.00;99.90;;;;;;5072432;28;20226;-56
2023/01/11 10:16:27;;;;;;;19.17;2.27;;;10.00;99.90;;;;;;5070451;28;20172;-56
2023/01/11 10:19:13;;;;;;;21.40;2.60;;;10.10;99.90;;;;;;5071662;28;20189;-56
2023/01/11 10:22:00;;;;;;;14.93;1.93;;;10.10;99.90;;;;;;5067349;28;20188;-56
2023/01/11 10:24:34;;;;;;;18.63;2.87;;;10.10;99.90;;;;;;5071842;28;20168;-56
2023/01/11 10:27:07;;;;;;;15.53;2.17;;;10.30;99.90;;;;;;5071777;28;20175;-56
2023/01/11 10:30:05;;;;;;;14.63;1.70;;;10.00;99.90;;;;;;5070274;28;20168;-56
2023/01/11 10:35:44;;;;;;;6.47;1.23;;;9.50;99.90;;;;;;5070029;28;20646;-56
2023/01/11 10:38:39;;;;;;;21.27;2.73;;;9.60;99.90;;;;;;5069794;28;20173;-56
2023/01/11 10:41:18;;;;;;;18.93;2.37;;;9.90;99.90;;;;;;5067173;28;20631;-56
2023/01/11 10:43:52;;;;;;;19.40;2.63;;;9.90;99.90;;;;;;5070795;28;20170;-58
2023/01/11 10:46:25;;;;;;;15.90;2.47;;;9.90;99.90;;;;;;5071692;28;20172;-56
2023/01/11 10:49:11;;;;;;;15.30;1.90;;;9.80;99.90;;;;;;5071610;28;20173;-56
2023/01/11 10:51:44;;;;;;;14.23;2.43;;;9.70;99.90;;;;;;5071517;28;20184;-56
2023/01/11 10:54:26;;;;;;;21.03;2.27;;;9.70;99.90;;;;;;5071458;28;20200;-56
2023/01/11 10:57:00;;;;;;;13.70;2.10;;;9.50;99.90;;;;;;5071638;28;20181;-56
2023/01/11 10:59:45;;;;;;;17.13;2.60;;;9.10;99.90;;;;;;5071537;28;20200;-56
2023/01/11 11:02:11;;;;;;;13.43;1.90;;;9.40;99.90;;;;;;5071627;28;20210;-56
2023/01/11 11:04:37;;;;;;;22.27;2.80;;;;;;;;;;5071509;28;20601;-55
2023/01/11 11:07:33;;;;;;;16.07;3.23;;;9.20;99.90;;;;;;5071396;28;20701;-56
2023/01/11 11:10:01;;;;;;;10.17;2.03;;;9.10;99.90;;;;;;5071235;28;20259;-56
2023/01/11 11:12:33;;;;;;;21.43;2.73;;;9.00;99.90;;;;;;5071219;28;20269;-56
2023/01/11 11:14:59;;;;;;;12.47;2.07;;;8.60;99.90;;;;;;5071028;28;20252;-55
2023/01/11 11:17:36;;;;;;;12.70;1.40;;;8.50;99.90;;;;;;5070956;28;20655;-55
2023/01/11 11:20:13;;;;;;;3.97;1.00;;;8.10;99.90;;;;;;5071107;28;20340;-56
2023/01/11 11:22:39;;;;;;;10.53;0.77;;;8.00;99.90;;;;;;5071073;28;20249;-56
2023/01/11 11:25:19;;;;;;;4.00;0.67;;;8.10;99.90;;;;;;5070877;28;20207;-55
2023/01/11 11:27:49;;;;;;;7.40;1.00;;;7.90;99.90;;;;;;5070916;28;20164;-55
2023/01/11 11:30:33;;;;;;;6.40;1.40;;;7.70;99.90;;;;;;5070982;28;20191;-56
2023/01/11 11:33:15;;;;;;;19.53;1.83;;;7.80;99.90;;;;;;5052817;28;20635;-56
2023/01/11 11:35:45;;;;;;;28.53;2.33;;;8.00;99.90;;;;;;5062579;28;20196;-55
2023/01/11 11:38:25;;;;;;;19.53;2.30;;;7.90;99.90;;;;;;5069490;28;20333;-55
2023/01/11 11:41:03;;;;;;;16.83;2.47;;;7.90;99.90;;;;;;5057411;28;20220;-55
2023/01/11 11:43:31;;;;;;;22.97;2.40;;;8.00;99.90;;;;;;5050497;28;20293;-56
2023/01/11 11:46:18;;;;;;;19.67;2.20;;;8.30;99.90;;;;;;5050639;28;20279;-56
2023/01/11 11:49:09;;;;;;;15.00;2.23;;;8.20;99.90;;;;;;5039879;28;20225;-56
2023/01/11 11:51:34;;;;;;;18.13;2.43;;;8.30;99.90;;;;;;5051392;28;20704;-56
2023/01/11 11:54:00;;;;;;;19.97;3.20;;;8.40;99.90;;;;;;5070316;28;20188;-55
2023/01/11 11:56:28;;;;;;;22.37;2.13;;;8.50;99.90;;;;;;5070232;28;20179;-56
2023/01/11 11:58:55;;;;;;;17.10;2.17;;;8.90;99.90;;;;;;5069979;28;20562;-55
2023/01/11 12:01:45;;;;;;;13.53;1.90;;;8.60;99.90;;;;;;5069925;28;20172;-56
2023/01/11 12:04:17;;;;;;;14.77;2.20;;;8.70;99.90;;;;;;5069712;28;20557;-57
2023/01/11 12:06:44;;;;;;;9.00;1.60;;;8.80;99.90;;;;;;5070015;28;20200;-57
2023/01/11 12:09:31;;;;;;;9.40;1.30;;;8.70;99.90;;;;;;5069340;28;20164;-56
2023/01/11 12:11:57;;;;;;;10.37;2.13;;;8.80;99.90;;;;;;5060808;28;20172;-57
2023/01/11 12:14:28;;;;;;;17.67;2.40;;;8.80;99.90;;;;;;5070166;28;20169;-57
2023/01/11 12:16:56;;;;;;;15.23;2.27;;;8.80;99.90;;;;;;5069824;28;20270;-57
2023/01/11 12:19:35;;;;;;;14.20;2.10;;;8.80;99.90;;;;;;5070054;28;20212;-57
2023/01/11 12:22:26;;;;;;;16.50;1.80;;;8.90;99.90;;;;;;5070070;28;20172;-56
2023/01/11 12:25:25;;;;;;;13.60;1.77;;;8.90;99.90;;;;;;5078253;28;20196;-57
2023/01/11 12:28:08;;;;;;;17.47;2.03;;;8.90;99.90;;;;;;5066814;28;20180;-56
2023/01/11 12:30:47;;;;;;;13.00;1.47;;;8.80;99.90;;;;;;5061979;28;20279;-55
2023/01/11 12:33:23;;;;;;;12.87;1.80;;;8.60;99.90;;;;;;5065849;28;20654;-55
2023/01/11 12:35:57;;;;;;;9.97;1.70;;;8.50;99.90;;;;;;5069608;28;20183;-56
2023/01/11 12:38:48;;;;;;;12.43;1.43;;;8.40;99.90;;;;;;5069756;28;20168;-56
2023/01/11 12:41:46;;;;;;;18.23;2.17;;;8.30;99.90;;;;;;5072711;28;20181;-55
2023/01/11 12:44:49;;;;;;;11.43;1.67;;;8.20;99.90;;;;;;5053783;28;20188;-55
2023/01/11 12:47:38;;;;;;;12.37;2.07;;;8.20;99.90;;;;;;5059445;28;20180;-56
2023/01/11 12:50:28;;;;;;;14.30;2.20;;;8.10;99.90;;;;;;5062405;28;20277;-57
2023/01/11 12:53:06;;;;;;;12.47;1.77;;;8.10;99.90;;;;;;5055495;28;20172;-57
2023/01/11 12:55:47;;;;;;;12.83;2.00;;;8.10;99.90;;;;;;5073405;28;20172;-57
2023/01/11 12:58:22;;;;;;;13.67;1.73;;;7.90;99.90;;;;;;5073172;28;20191;-56
2023/01/11 13:01:24;;;;;;;9.40;1.77;;;7.70;99.90;;;;;;5072316;28;20219;-56
2023/01/11 13:04:20;;;;;;;11.50;1.43;;;7.90;99.90;;;;;;5073199;28;20175;-56
2023/01/11 13:06:48;;;;;;;8.27;1.13;;;7.80;99.90;;;;;;5073219;28;20219;-56
2023/01/11 13:09:17;;;;;;;8.07;1.10;;;7.80;99.90;;;;;;5073265;28;20171;-56
2023/01/11 13:12:17;;;;;;;9.77;1.93;;;8.00;99.90;;;;;;5072666;28;20168;-56
2023/01/11 13:15:04;;;;;;;19.73;2.57;;;7.90;99.90;;;;;;5058358;28;20287;-56
2023/01/11 13:17:30;;;;;;;12.93;1.67;;;8.20;99.90;;;;;;5072891;28;20223;-53
2023/01/11 13:20:04;;;;;;;13.97;2.20;;;8.00;99.90;;;;;;5072943;28;20208;-54
2023/01/11 13:22:42;;;;;;;14.60;1.97;;;8.00;99.90;;;;;;5072561;28;20180;-55
2023/01/11 13:25:26;;;;;;;11.73;2.20;;;8.00;99.90;;;;;;5045474;28;20197;-55
2023/01/11 13:27:55;;;;;;;11.67;1.80;;;8.40;99.90;;;;;;5052892;28;20173;-55
2023/01/11 13:30:25;;;;;;;22.27;2.87;;;8.10;99.90;;;;;;5055926;28;20184;-55
2023/01/11 13:33:13;;;;;;;19.47;2.73;;;8.10;99.90;;;;;;5071672;28;20242;-55
2023/01/11 13:35:45;;;;;;;25.43;2.67;;;8.30;99.90;;;;;;5072991;28;20176;-56
2023/01/11 13:38:46;;;;;;;15.13;2.07;;;8.10;99.90;;;;;;5072586;28;20255;-56
2023/01/11 13:41:33;;;;;;;6.43;1.40;;;8.20;99.90;;;;;;5072287;28;20308;-54
2023/01/11 13:44:19;;;;;;;16.10;2.47;;;8.30;99.90;;;;;;5072556;28;20180;-54
2023/01/11 13:46:58;;;;;;;15.80;1.90;;;8.40;99.90;;;;;;5072230;28;20172;-55
2023/01/11 13:49:30;;;;;;;15.20;1.90;;;8.20;99.90;;;;;;5072730;28;20176;-56
2023/01/11 13:52:06;;;;;;;9.90;1.67;;;8.10;99.90;;;;;;5070678;28;20168;-57
2023/01/11 13:54:49;;;;;;;7.30;0.90;;;7.70;99.90;;;;;;5072526;28;20242;-55
2023/01/11 13:57:34;;;;;;;10.97;1.23;;;7.70;99.90;;;;;;5072078;28;20227;-55